Time;durP1;ratioP1;P1;durP2;ratioP2;P2;SDS_P1;SDS_P2;PMS_P1;PMS_P2;Temp;Humidity;BMP_temperature;BMP_pressure;BME280_temperature;BME280_humidity;BME280_pressure;Samples;Min_cycle;Max_cycle;Signal;HPM_P1;HPM_P2
2022/09/19 00:01:43;;;;;;;0.50;0.10;;;9.60;1.00;;;;;;6187958;23;20396;-77
2022/09/19 00:04:14;;;;;;;0.50;0.10;;;9.60;1.00;;;;;;6203084;23;20470;-77
2022/09/19 00:06:44;;;;;;;0.60;0.20;;;9.60;1.00;;;;;;6203185;23;20743;-78
2022/09/19 00:09:15;;;;;;;0.60;0.10;;;9.60;1.00;;;;;;6205073;23;20417;-78
2022/09/19 00:11:44;;;;;;;0.60;0.20;;;9.70;1.00;;;;;;6197138;23;20510;-76
2022/09/19 00:14:16;;;;;;;0.70;0.40;;;9.70;1.00;;;;;;6188299;23;20396;-77
2022/09/19 00:16:46;;;;;;;0.50;0.10;;;9.70;1.00;;;;;;6185843;23;20971;-77
2022/09/19 00:19:17;;;;;;;0.57;0.20;;;9.70;1.00;;;;;;6186842;23;20519;-77
2022/09/19 00:21:48;;;;;;;0.87;0.30;;;9.80;1.00;;;;;;6187571;23;20454;-79
2022/09/19 00:27:04;;;;;;;0.60;0.40;;;9.90;1.00;;;;;;6188670;23;20435;-79
2022/09/19 00:29:36;;;;;;;0.60;0.10;;;9.90;1.00;;;;;;6189640;23;20439;-77
2022/09/19 00:32:07;;;;;;;0.57;0.20;;;;;;;;;;6188030;23;20466;-76
2022/09/19 00:34:35;;;;;;;0.60;0.10;;;10.00;1.00;;;;;;6190248;23;20562;-78
2022/09/19 00:37:03;;;;;;;0.57;0.10;;;10.00;1.00;;;;;;6198860;23;20458;-77
2022/09/19 00:39:31;;;;;;;0.60;0.10;;;10.00;1.00;;;;;;6190881;23;20982;-77
2022/09/19 00:41:59;;;;;;;0.50;0.10;;;10.00;1.00;;;;;;6188389;23;20407;-77
2022/09/19 00:44:55;;;;;;;0.60;0.20;;;10.00;1.00;;;;;;6186536;23;20412;-76
2022/09/19 00:47:29;;;;;;;1.37;0.50;;;10.00;1.00;;;;;;6188380;23;20436;-77
2022/09/19 00:50:00;;;;;;;0.63;0.60;;;10.00;1.00;;;;;;6193934;23;20939;-77
2022/09/19 00:52:34;;;;;;;0.60;0.20;;;10.00;1.00;;;;;;6187826;23;20460;-78
2022/09/19 00:55:03;;;;;;;0.60;0.20;;;10.10;1.00;;;;;;6188945;23;20518;-77
2022/09/19 00:57:41;;;;;;;0.50;0.10;;;10.00;1.00;;;;;;6205626;23;20404;-77
2022/09/19 01:00:12;;;;;;;0.60;0.10;;;10.00;1.00;;;;;;6205611;23;20919;-77
2022/09/19 01:02:41;;;;;;;0.60;0.37;;;10.00;1.00;;;;;;6191501;23;20408;-77
2022/09/19 01:05:09;;;;;;;0.50;0.10;;;10.10;1.00;;;;;;6190114;23;20432;-77
2022/09/19 01:07:51;;;;;;;0.60;0.30;;;10.00;1.00;;;;;;6189071;23;20432;-78
2022/09/19 01:10:34;;;;;;;0.50;0.10;;;10.00;1.00;;;;;;6188478;23;20412;-77
2022/09/19 01:13:15;;;;;;;0.57;0.10;;;10.10;1.00;;;;;;6189140;23;20388;-77
2022/09/19 01:15:54;;;;;;;0.70;0.30;;;10.00;1.00;;;;;;6189068;23;20430;-76
2022/09/19 01:18:27;;;;;;;0.60;0.20;;;10.00;1.00;;;;;;6188994;23;20423;-77
2022/09/19 01:24:20;;;;;;;0.50;0.10;;;10.00;1.00;;;;;;6189832;23;20429;-79
2022/09/19 01:27:09;;;;;;;0.50;0.10;;;10.10;1.00;;;;;;6189432;23;20416;-77
2022/09/19 01:29:43;;;;;;;0.50;0.10;;;10.00;1.00;;;;;;6189690;23;20963;-77
2022/09/19 01:32:17;;;;;;;0.50;0.10;;;10.10;1.00;;;;;;6187824;23;20402;-76
2022/09/19 01:34:49;;;;;;;0.60;0.10;;;10.10;1.00;;;;;;6195907;23;20503;-78
2022/09/19 01:37:20;;;;;;;0.50;0.20;;;10.10;1.00;;;;;;6189660;23;20428;-77
2022/09/19 01:39:50;;;;;;;0.60;0.30;;;10.10;1.00;;;;;;6190007;23;20440;-77
2022/09/19 01:42:22;;;;;;;0.50;0.10;;;10.10;1.00;;;;;;6189198;23;20400;-77
2022/09/19 01:44:52;;;;;;;0.50;0.10;;;10.20;1.00;;;;;;6188986;23;20412;-77
2022/09/19 01:47:27;;;;;;;0.57;0.20;;;10.20;1.00;;;;;;6188729;23;20928;-77
2022/09/19 01:50:02;;;;;;;0.50;0.10;;;10.20;1.00;;;;;;6187853;23;20486;-77
2022/09/19 01:52:54;;;;;;;0.60;0.20;;;10.20;1.00;;;;;;6190307;23;20377;-78
2022/09/19 01:55:27;;;;;;;0.50;0.10;;;10.20;1.00;;;;;;6199415;23;20392;-77
2022/09/19 01:58:05;;;;;;;0.60;0.20;;;10.30;1.00;;;;;;6195612;23;20436;-77
2022/09/19 02:00:40;;;;;;;0.60;0.10;;;10.30;1.00;;;;;;6188923;23;20443;-77
2022/09/19 02:03:22;;;;;;;0.70;0.40;;;10.30;1.00;;;;;;6190531;23;20508;-77
2022/09/19 02:05:56;;;;;;;0.50;0.10;;;10.30;1.00;;;;;;6191486;23;20381;-77
2022/09/19 02:08:30;;;;;;;0.60;0.10;;;10.30;1.00;;;;;;6186985;23;20412;-78
2022/09/19 02:11:03;;;;;;;0.77;0.57;;;10.30;1.00;;;;;;6189735;23;20429;-77
2022/09/19 02:13:34;;;;;;;1.23;0.67;;;10.30;1.00;;;;;;6187636;23;20404;-77
2022/09/19 02:16:08;;;;;;;0.53;0.10;;;10.30;1.00;;;;;;6188443;23;20820;-77
2022/09/19 02:18:43;;;;;;;0.50;0.10;;;10.30;1.00;;;;;;6186168;23;20899;-77
2022/09/19 02:21:15;;;;;;;0.57;0.10;;;10.40;1.00;;;;;;6186914;23;20439;-77
2022/09/19 02:23:48;;;;;;;0.50;0.20;;;10.40;1.00;;;;;;6188261;23;20916;-77
2022/09/19 02:26:20;;;;;;;1.00;0.37;;;10.40;1.00;;;;;;6187627;23;20451;-76
2022/09/19 02:28:54;;;;;;;0.60;0.10;;;10.40;1.00;;;;;;6188100;23;20919;-77
2022/09/19 02:31:26;;;;;;;0.60;0.30;;;10.30;1.00;;;;;;6189768;23;20462;-77
2022/09/19 02:33:59;;;;;;;0.70;0.50;;;10.30;1.00;;;;;;6189448;23;20420;-77
2022/09/19 02:36:31;;;;;;;0.70;0.20;;;10.30;1.00;;;;;;6193801;23;20432;-78
2022/09/19 02:39:07;;;;;;;0.50;0.10;;;10.40;1.00;;;;;;6198564;23;20405;-78
2022/09/19 02:41:42;;;;;;;0.50;0.10;;;10.30;1.00;;;;;;6193325;23;20502;-78
2022/09/19 02:44:18;;;;;;;0.80;0.30;;;10.30;1.00;;;;;;6189871;23;20411;-79
2022/09/19 02:46:55;;;;;;;0.60;0.10;;;10.40;1.00;;;;;;6189035;23;20470;-77
2022/09/19 02:49:38;;;;;;;0.60;0.10;;;10.40;1.00;;;;;;6187903;23;20491;-77
2022/09/19 02:52:14;;;;;;;0.60;0.10;;;10.50;1.00;;;;;;6186527;23;20412;-77
2022/09/19 02:54:44;;;;;;;0.50;0.10;;;10.50;1.00;;;;;;6188601;23;20407;-78
2022/09/19 02:57:16;;;;;;;1.67;0.50;;;10.60;1.00;;;;;;6187739;23;20497;-78
2022/09/19 02:59:48;;;;;;;0.60;0.20;;;10.60;1.00;;;;;;6190044;23;20757;-79
2022/09/19 03:02:22;;;;;;;0.60;0.10;;;10.60;1.00;;;;;;6189563;23;20459;-79
2022/09/19 03:04:54;;;;;;;0.60;0.30;;;10.60;1.00;;;;;;6186984;23;20416;-77
2022/09/19 03:07:27;;;;;;;0.77;0.67;;;10.60;1.00;;;;;;6189855;23;20479;-77
2022/09/19 03:09:59;;;;;;;2.20;2.10;;;;;;;;;;6207827;23;20458;-78
2022/09/19 03:12:30;;;;;;;0.60;0.20;;;10.60;1.00;;;;;;6213590;23;20387;-78
2022/09/19 03:14:58;;;;;;;0.60;0.30;;;10.60;1.00;;;;;;6213199;23;20476;-78
2022/09/19 03:17:32;;;;;;;0.63;0.23;;;10.60;1.00;;;;;;6214579;23;20411;-78
2022/09/19 03:20:00;;;;;;;0.87;0.50;;;10.70;1.00;;;;;;6187055;23;20793;-79
2022/09/19 03:22:29;;;;;;;1.10;0.80;;;10.70;1.00;;;;;;6185207;23;20446;-79
2022/09/19 03:25:01;;;;;;;0.60;0.20;;;10.70;1.00;;;;;;6191713;23;20414;-79
2022/09/19 03:27:29;;;;;;;0.60;0.20;;;10.70;1.00;;;;;;6190711;23;20432;-79
2022/09/19 03:29:56;;;;;;;0.60;0.30;;;10.70;1.00;;;;;;6183374;23;20432;-78
2022/09/19 03:32:27;;;;;;;1.37;0.50;;;10.70;1.00;;;;;;6182958;23;20425;-79
2022/09/19 03:34:56;;;;;;;2.10;0.50;;;10.70;1.00;;;;;;6183560;23;20455;-78
2022/09/19 03:37:24;;;;;;;0.60;0.20;;;10.70;1.00;;;;;;6183444;23;20741;-78
2022/09/19 03:39:52;;;;;;;0.60;0.10;;;10.80;1.00;;;;;;6189458;23;20431;-79
2022/09/19 03:42:20;;;;;;;2.50;1.90;;;10.80;1.00;;;;;;6195656;23;20495;-80
2022/09/19 03:44:48;;;;;;;1.37;0.30;;;10.80;1.00;;;;;;6188373;23;20404;-79
2022/09/19 03:47:16;;;;;;;0.60;0.40;;;10.80;1.00;;;;;;6186070;23;20408;-79
2022/09/19 03:49:44;;;;;;;0.60;0.20;;;10.80;1.00;;;;;;6185734;23;20960;-80
2022/09/19 03:52:13;;;;;;;0.93;0.50;;;10.80;1.00;;;;;;6190827;23;20888;-78
2022/09/19 03:54:41;;;;;;;0.53;0.10;;;10.90;1.00;;;;;;6183312;23;20416;-78
2022/09/19 03:57:09;;;;;;;0.60;0.10;;;11.00;1.00;;;;;;6183693;23;20412;-79
2022/09/19 03:59:41;;;;;;;0.60;0.10;;;11.10;1.00;;;;;;6183051;23;20983;-78
2022/09/19 04:02:09;;;;;;;0.60;0.10;;;11.10;1.00;;;;;;6184475;23;20435;-78
2022/09/19 04:04:38;;;;;;;0.60;0.10;;;11.20;1.00;;;;;;6186538;23;20417;-78
2022/09/19 04:07:06;;;;;;;0.60;0.10;;;11.20;1.00;;;;;;6185586;23;20905;-79
2022/09/19 04:09:35;;;;;;;0.70;0.30;;;11.30;1.00;;;;;;6186069;23;20465;-78
2022/09/19 04:12:04;;;;;;;0.70;0.20;;;11.30;1.00;;;;;;6186221;23;20403;-78
2022/09/19 04:14:34;;;;;;;0.60;0.10;;;11.30;1.00;;;;;;6186064;23;20403;-78
2022/09/19 04:17:02;;;;;;;0.60;0.20;;;11.30;1.00;;;;;;6185937;23;20434;-77
2022/09/19 04:19:52;;;;;;;0.60;0.10;;;11.30;1.00;;;;;;6185814;23;20424;-77
2022/09/19 04:22:21;;;;;;;0.60;0.20;;;11.40;1.00;;;;;;6185315;23;20428;-77
2022/09/19 04:24:51;;;;;;;0.60;0.10;;;11.40;1.00;;;;;;6185337;23;20404;-77
2022/09/19 04:27:19;;;;;;;0.60;0.10;;;11.40;1.00;;;;;;6186005;23;20412;-78
2022/09/19 04:29:48;;;;;;;0.60;0.10;;;11.40;1.00;;;;;;6185201;23;20424;-78
2022/09/19 04:32:16;;;;;;;0.60;0.10;;;11.40;1.00;;;;;;6185173;23;20400;-77
2022/09/19 04:34:44;;;;;;;0.60;0.10;;;11.50;1.00;;;;;;6185743;23;20403;-77
2022/09/19 04:37:15;;;;;;;0.60;0.10;;;11.50;1.00;;;;;;6185040;23;21120;-78
2022/09/19 04:39:47;;;;;;;0.60;0.10;;;11.50;1.00;;;;;;6187320;23;20722;-78
2022/09/19 04:42:16;;;;;;;1.13;1.03;;;11.50;1.00;;;;;;6187890;23;20471;-78
2022/09/19 04:44:44;;;;;;;0.60;0.10;;;11.40;1.00;;;;;;6188467;23;20400;-77
2022/09/19 04:47:14;;;;;;;0.60;0.20;;;11.40;1.00;;;;;;6187112;23;20397;-78
2022/09/19 04:49:42;;;;;;;0.60;0.20;;;;;;;;;;6186824;23;20424;-78
2022/09/19 04:52:12;;;;;;;0.60;0.10;;;11.30;1.00;;;;;;6186826;23;20404;-78
2022/09/19 04:54:41;;;;;;;0.60;0.20;;;11.30;1.00;;;;;;6186247;23;20519;-77
2022/09/19 04:57:09;;;;;;;0.60;0.10;;;11.30;1.00;;;;;;6187955;23;20432;-79
2022/09/19 04:59:38;;;;;;;0.60;0.20;;;11.30;1.00;;;;;;6186849;23;20424;-78
2022/09/19 05:02:08;;;;;;;1.00;0.53;;;11.30;1.00;;;;;;6186479;23;20600;-77
2022/09/19 05:04:38;;;;;;;0.70;0.50;;;11.20;1.00;;;;;;6191506;23;20467;-78
2022/09/19 05:07:06;;;;;;;0.60;0.10;;;11.20;1.00;;;;;;6194497;23;20200;-79
2022/09/19 05:09:34;;;;;;;0.60;0.20;;;11.20;1.00;;;;;;6194809;23;20931;-78
2022/09/19 05:12:02;;;;;;;0.60;0.20;;;11.20;1.00;;;;;;6191410;23;20943;-78
2022/09/19 05:14:30;;;;;;;0.60;0.20;;;11.20;1.00;;;;;;6189759;23;20900;-77
2022/09/19 05:17:00;;;;;;;0.60;0.10;;;11.20;1.00;;;;;;6188513;23;20401;-78
2022/09/19 05:19:28;;;;;;;0.67;0.60;;;11.20;1.00;;;;;;6186933;23;20963;-77
2022/09/19 05:21:56;;;;;;;0.60;0.10;;;11.20;1.00;;;;;;6189076;23;20440;-78
2022/09/19 05:24:24;;;;;;;0.60;0.10;;;11.20;1.00;;;;;;6206525;23;20415;-79
2022/09/19 05:26:56;;;;;;;0.60;0.10;;;11.20;1.00;;;;;;6205663;23;20435;-78
2022/09/19 05:29:24;;;;;;;0.60;0.10;;;11.20;1.00;;;;;;6202086;23;20416;-79
2022/09/19 05:31:54;;;;;;;0.60;0.10;;;11.20;1.00;;;;;;6194772;23;20400;-79
2022/09/19 05:34:24;;;;;;;0.60;0.10;;;11.20;1.00;;;;;;6187759;23;20403;-77
2022/09/19 05:36:52;;;;;;;0.60;0.20;;;11.30;1.00;;;;;;6186020;23;20455;-78
2022/09/19 05:39:20;;;;;;;0.60;0.30;;;11.30;1.00;;;;;;6189096;23;20970;-79
2022/09/19 05:41:48;;;;;;;0.50;0.17;;;11.40;1.00;;;;;;6192179;23;20446;-79
2022/09/19 05:44:16;;;;;;;0.60;0.10;;;11.40;1.00;;;;;;6194665;23;20420;-79
2022/09/19 05:46:44;;;;;;;0.60;0.10;;;11.40;1.00;;;;;;6184507;23;20396;-78
2022/09/19 05:49:12;;;;;;;0.60;0.40;;;11.40;1.00;;;;;;6184695;23;20817;-78
2022/09/19 05:51:41;;;;;;;0.60;0.10;;;11.40;1.00;;;;;;6184439;23;20400;-78
2022/09/19 05:54:08;;;;;;;0.60;0.10;;;11.40;1.00;;;;;;6182206;23;20404;-78
2022/09/19 05:56:36;;;;;;;0.60;0.20;;;;;;;;;;6185112;23;20928;-78
2022/09/19 05:59:04;;;;;;;0.60;0.10;;;11.50;1.00;;;;;;6184323;23;20490;-78
2022/09/19 06:01:32;;;;;;;0.60;0.10;;;11.50;1.00;;;;;;6184637;23;21008;-79
2022/09/19 06:04:01;;;;;;;0.60;0.20;;;11.40;1.00;;;;;;6186467;23;20428;-78
2022/09/19 06:06:29;;;;;;;1.07;0.97;;;11.40;1.00;;;;;;6186646;23;20408;-77
2022/09/19 06:08:58;;;;;;;0.60;0.10;;;11.40;1.00;;;;;;6185337;23;20463;-78
2022/09/19 06:11:27;;;;;;;0.60;0.10;;;11.40;1.00;;;;;;6185457;23;20399;-77
2022/09/19 06:16:41;;;;;;;0.60;0.10;;;11.60;1.00;;;;;;6185257;23;20408;-79
2022/09/19 06:19:09;;;;;;;0.60;0.10;;;11.70;1.00;;;;;;6185093;23;20428;-78
2022/09/19 06:21:37;;;;;;;0.60;0.10;;;11.70;1.00;;;;;;6184609;23;20416;-78
2022/09/19 06:24:07;;;;;;;0.60;0.10;;;11.80;1.00;;;;;;6185479;23;20408;-79
2022/09/19 06:26:35;;;;;;;0.60;0.10;;;11.80;1.00;;;;;;6183958;23;20416;-79
2022/09/19 06:29:03;;;;;;;1.10;1.10;;;;;;;;;;6185915;23;20424;-78
2022/09/19 06:31:31;;;;;;;0.60;0.10;;;11.90;1.00;;;;;;6185252;23;20404;-79
2022/09/19 06:33:59;;;;;;;0.60;0.10;;;11.90;1.00;;;;;;6184221;23;20464;-79
2022/09/19 06:36:26;;;;;;;1.37;1.17;;;11.90;1.00;;;;;;6184505;23;20411;-80
2022/09/19 06:38:54;;;;;;;0.60;0.10;;;12.00;1.00;;;;;;6184438;23;20482;-78
2022/09/19 06:41:24;;;;;;;0.97;0.57;;;12.00;1.00;;;;;;6183991;23;20404;-79
2022/09/19 06:43:52;;;;;;;1.63;1.07;;;12.00;1.00;;;;;;6184237;23;20451;-79
2022/09/19 06:46:20;;;;;;;1.27;0.73;;;11.90;1.00;;;;;;6184807;23;20904;-78
2022/09/19 06:48:49;;;;;;;0.60;0.20;;;11.90;1.00;;;;;;6184994;23;20435;-79
2022/09/19 06:51:17;;;;;;;0.60;0.20;;;12.00;1.00;;;;;;6183712;23;20408;-78
2022/09/19 06:53:47;;;;;;;0.60;0.10;;;12.00;1.00;;;;;;6183603;23;20868;-78
2022/09/19 06:56:15;;;;;;;1.53;0.50;;;12.00;1.00;;;;;;6183738;23;20408;-77
2022/09/19 06:58:44;;;;;;;0.60;0.10;;;12.20;1.00;;;;;;6184424;23;20446;-77
2022/09/19 07:01:12;;;;;;;0.60;0.20;;;12.30;1.00;;;;;;6184067;23;20449;-79
2022/09/19 07:03:41;;;;;;;2.70;1.37;;;12.30;1.00;;;;;;6183222;23;20495;-78
2022/09/19 07:06:09;;;;;;;0.60;0.20;;;12.20;1.00;;;;;;6184224;23;20687;-78
2022/09/19 07:08:37;;;;;;;0.60;0.30;;;12.20;1.00;;;;;;6184629;23;20498;-77
2022/09/19 07:11:07;;;;;;;0.60;0.10;;;12.20;1.00;;;;;;6185361;23;20495;-78
2022/09/19 07:13:34;;;;;;;0.60;0.10;;;12.30;1.00;;;;;;6183777;23;20431;-77
2022/09/19 07:16:04;;;;;;;1.33;1.23;;;12.30;1.00;;;;;;6184274;23;20408;-77
2022/09/19 07:18:35;;;;;;;0.70;0.43;;;12.20;1.00;;;;;;6184455;23;20798;-76
2022/09/19 07:21:03;;;;;;;0.97;0.53;;;12.20;1.00;;;;;;6185195;23;20400;-77
2022/09/19 07:23:31;;;;;;;2.23;0.40;;;12.20;1.00;;;;;;6184082;23;20436;-77
2022/09/19 07:26:00;;;;;;;1.80;0.93;;;12.20;1.00;;;;;;6184155;23;20435;-77
2022/09/19 07:28:28;;;;;;;0.60;0.10;;;12.30;1.00;;;;;;6185528;23;20431;-78
2022/09/19 07:30:59;;;;;;;0.70;0.50;;;12.30;1.00;;;;;;6189385;23;20415;-78
2022/09/19 07:33:30;;;;;;;1.90;0.63;;;12.30;1.00;;;;;;6191622;23;20389;-79
2022/09/19 07:35:58;;;;;;;0.60;0.10;;;;;;;;;;6189286;23;20481;-78
2022/09/19 07:38:28;;;;;;;0.60;0.10;;;12.30;1.00;;;;;;6188623;23;20424;-77
2022/09/19 07:41:00;;;;;;;0.60;0.20;;;12.40;1.00;;;;;;6189769;23;20465;-77
2022/09/19 07:43:28;;;;;;;0.60;0.20;;;12.40;1.00;;;;;;6191139;23;20499;-77
2022/09/19 07:45:56;;;;;;;1.30;0.83;;;12.40;1.00;;;;;;6191877;23;20439;-79
2022/09/19 07:48:24;;;;;;;2.40;1.03;;;12.30;1.00;;;;;;6186957;23;20806;-77
2022/09/19 07:50:53;;;;;;;2.30;2.10;;;12.30;1.00;;;;;;6189673;23;20408;-79
2022/09/19 07:53:26;;;;;;;0.60;0.20;;;12.30;1.00;;;;;;6186903;23;20381;-78
2022/09/19 07:55:56;;;;;;;5.90;0.70;;;12.40;1.00;;;;;;6186352;23;20404;-78
2022/09/19 07:58:25;;;;;;;1.50;1.37;;;12.40;1.00;;;;;;6186332;23;20761;-78
2022/09/19 08:00:54;;;;;;;1.07;0.97;;;12.40;1.00;;;;;;6186397;23;20778;-78
2022/09/19 08:03:22;;;;;;;0.70;0.40;;;12.40;1.00;;;;;;6185673;23;20494;-78
2022/09/19 08:05:52;;;;;;;0.60;0.20;;;12.40;1.00;;;;;;6185666;23;20404;-78
2022/09/19 08:08:22;;;;;;;1.10;0.50;;;12.50;1.00;;;;;;6185954;23;21329;-78
2022/09/19 08:10:51;;;;;;;1.53;0.40;;;12.60;1.00;;;;;;6189155;23;20412;-78
2022/09/19 08:13:21;;;;;;;1.10;1.00;;;12.60;1.00;;;;;;6190334;23;20474;-78
2022/09/19 08:15:49;;;;;;;0.60;0.10;;;12.60;1.00;;;;;;6190208;23;20489;-77
2022/09/19 08:18:18;;;;;;;0.70;0.20;;;12.70;1.00;;;;;;6192180;23;20417;-78
2022/09/19 08:20:46;;;;;;;0.60;0.20;;;10.20;1.00;;;;;;6193505;23;20507;-77
2022/09/19 08:23:17;;;;;;;0.60;0.10;;;13.00;1.00;;;;;;6186522;23;20431;-77
2022/09/19 08:25:47;;;;;;;1.00;0.90;;;13.00;1.00;;;;;;6186431;23;20825;-77
2022/09/19 08:28:16;;;;;;;0.60;0.10;;;13.00;1.00;;;;;;6186024;23;20431;-77
2022/09/19 08:30:45;;;;;;;8.03;1.70;;;13.00;1.00;;;;;;6185809;23;20446;-77
2022/09/19 08:33:13;;;;;;;0.60;0.10;;;13.00;1.00;;;;;;6185067;23;20400;-77
2022/09/19 08:35:41;;;;;;;0.60;0.30;;;13.10;1.00;;;;;;6185830;23;20408;-78
2022/09/19 08:38:11;;;;;;;0.60;0.10;;;13.20;1.00;;;;;;6186336;23;20431;-77
2022/09/19 08:40:56;;;;;;;0.80;0.33;;;13.30;1.00;;;;;;6185923;23;20967;-76
2022/09/19 08:43:30;;;;;;;0.60;0.20;;;13.30;1.00;;;;;;6186763;23;20471;-76
2022/09/19 08:46:13;;;;;;;0.60;0.20;;;13.20;1.00;;;;;;6186968;23;20407;-76
2022/09/19 08:48:56;;;;;;;0.87;0.53;;;13.20;1.00;;;;;;6185371;23;20729;-76
2022/09/19 08:51:32;;;;;;;1.00;0.73;;;13.10;1.00;;;;;;6186156;23;20408;-77
2022/09/19 08:54:12;;;;;;;0.70;0.40;;;13.20;1.00;;;;;;6184799;23;20404;-77
2022/09/19 08:56:44;;;;;;;0.60;0.20;;;13.20;1.00;;;;;;6185756;23;20407;-77
2022/09/19 08:59:14;;;;;;;0.60;0.10;;;13.30;1.00;;;;;;6185415;23;20924;-77
2022/09/19 09:01:43;;;;;;;0.87;0.63;;;13.40;1.00;;;;;;6185439;23;20388;-78
2022/09/19 09:04:26;;;;;;;0.90;0.43;;;13.40;1.00;;;;;;6185029;23;20494;-77
2022/09/19 09:07:03;;;;;;;1.03;0.50;;;13.40;1.00;;;;;;6185838;23;20384;-77
2022/09/19 09:09:48;;;;;;;0.90;0.77;;;13.50;1.00;;;;;;6206419;23;20513;-80
2022/09/19 09:12:29;;;;;;;0.60;0.20;;;13.40;1.00;;;;;;6227854;23;20386;-80
2022/09/19 09:15:10;;;;;;;0.60;0.10;;;13.40;1.00;;;;;;6223723;23;20411;-79
2022/09/19 09:18:08;;;;;;;0.97;0.73;;;13.40;1.00;;;;;;6224331;23;20522;-79
2022/09/19 09:20:50;;;;;;;0.70;0.40;;;13.50;1.00;;;;;;6196039;23;20483;-80
2022/09/19 09:23:26;;;;;;;0.70;0.30;;;13.50;1.00;;;;;;6198399;23;20402;-82
2022/09/19 09:26:00;;;;;;;1.17;1.10;;;;;;;;;;6201404;23;20400;-79
2022/09/19 09:28:41;;;;;;;6.10;2.43;;;13.70;1.00;;;;;;6208465;23;20434;-79
2022/09/19 09:31:18;;;;;;;0.80;0.30;;;13.80;1.00;;;;;;6210382;23;20392;-79
2022/09/19 09:33:52;;;;;;;0.63;0.20;;;13.90;1.00;;;;;;6208321;23;20404;-79
2022/09/19 09:36:23;;;;;;;0.67;0.20;;;13.80;1.00;;;;;;6206741;23;20396;-78
2022/09/19 09:38:56;;;;;;;0.70;0.30;;;13.90;1.00;;;;;;6201818;23;20439;-79
2022/09/19 09:41:47;;;;;;;0.70;0.30;;;13.90;1.00;;;;;;6202051;23;20436;-79
2022/09/19 09:44:38;;;;;;;0.60;0.10;;;13.90;1.00;;;;;;6199092;23;20446;-78
2022/09/19 09:47:16;;;;;;;0.60;0.10;;;14.00;1.00;;;;;;6197925;23;20399;-81
2022/09/19 09:49:44;;;;;;;1.40;1.30;;;14.00;1.00;;;;;;6199063;23;20438;-81
2022/09/19 09:52:26;;;;;;;1.07;0.83;;;14.10;1.00;;;;;;6199269;23;20422;-79
2022/09/19 09:57:57;;;;;;;0.60;0.10;;;14.10;1.00;;;;;;6198235;23;20416;-79
2022/09/19 10:03:35;;;;;;;1.67;0.67;;;14.50;1.00;;;;;;6199453;23;20411;-79
2022/09/19 10:06:09;;;;;;;0.60;0.10;;;14.60;1.00;;;;;;6199770;23;20392;-80
2022/09/19 10:08:44;;;;;;;0.60;0.10;;;14.90;1.00;;;;;;6196970;23;20446;-79
2022/09/19 10:11:17;;;;;;;0.60;0.10;;;14.90;1.00;;;;;;6194842;23;20415;-78
2022/09/19 10:14:08;;;;;;;0.60;0.10;;;15.00;1.00;;;;;;6204503;23;20400;-80
2022/09/19 10:16:37;;;;;;;0.60;0.10;;;15.00;1.00;;;;;;6209231;23;20504;-80
2022/09/19 10:19:15;;;;;;;0.60;0.10;;;15.20;1.00;;;;;;6202487;23;20424;-80
2022/09/19 10:21:43;;;;;;;0.60;0.10;;;15.30;1.00;;;;;;6198103;23;20400;-80
2022/09/19 10:24:40;;;;;;;0.60;0.10;;;15.40;1.00;;;;;;6197302;23;20451;-80
2022/09/19 10:27:11;;;;;;;0.60;0.10;;;15.40;1.00;;;;;;6206885;23;20403;-79
2022/09/19 10:29:51;;;;;;;0.60;0.10;;;15.50;1.00;;;;;;6204890;23;20414;-79
2022/09/19 10:32:24;;;;;;;0.60;0.10;;;15.60;1.00;;;;;;6195217;23;20471;-80
2022/09/19 10:34:52;;;;;;;0.60;0.10;;;15.90;1.00;;;;;;6195749;23;20458;-80
2022/09/19 10:37:27;;;;;;;0.60;0.10;;;15.80;1.00;;;;;;6196282;23;20432;-81
2022/09/19 10:40:01;;;;;;;0.60;0.10;;;15.80;1.00;;;;;;6195191;23;20463;-81
2022/09/19 10:42:37;;;;;;;0.60;0.10;;;15.90;1.00;;;;;;6194842;23;20411;-79
2022/09/19 10:45:19;;;;;;;0.60;0.10;;;16.00;1.00;;;;;;6195376;23;20441;-78
2022/09/19 10:47:49;;;;;;;0.60;0.10;;;16.00;1.00;;;;;;6195831;23;20450;-79
2022/09/19 10:50:19;;;;;;;0.60;0.10;;;16.00;1.00;;;;;;6196828;23;20420;-79
2022/09/19 10:52:50;;;;;;;0.60;0.10;;;16.00;1.00;;;;;;6196566;23;20435;-79
2022/09/19 10:55:22;;;;;;;0.60;0.10;;;15.90;1.00;;;;;;6206306;23;20400;-79
2022/09/19 10:57:59;;;;;;;0.60;0.20;;;15.90;1.00;;;;;;6209806;23;20396;-78
2022/09/19 11:00:29;;;;;;;0.60;0.10;;;15.80;1.00;;;;;;6209958;23;20420;-79
2022/09/19 11:03:02;;;;;;;0.60;0.10;;;15.90;1.00;;;;;;6207897;23;20472;-79
2022/09/19 11:05:32;;;;;;;0.60;0.20;;;15.90;1.00;;;;;;6208545;23;20450;-79
2022/09/19 11:08:00;;;;;;;0.60;0.10;;;15.90;1.00;;;;;;6209774;23;20427;-79
2022/09/19 11:10:38;;;;;;;0.60;0.10;;;16.10;1.00;;;;;;6209063;23;20407;-79
2022/09/19 11:13:14;;;;;;;0.60;0.10;;;16.30;1.00;;;;;;6208147;23;20548;-79
2022/09/19 11:16:00;;;;;;;0.60;0.10;;;16.40;1.00;;;;;;6209518;23;20384;-79
2022/09/19 11:18:43;;;;;;;0.60;0.20;;;16.50;1.00;;;;;;6209620;23;20436;-79
2022/09/19 11:21:16;;;;;;;0.60;0.20;;;16.50;1.00;;;;;;6209396;23;20404;-81
2022/09/19 11:23:56;;;;;;;0.60;0.10;;;16.60;1.00;;;;;;6207912;23;20442;-79
2022/09/19 11:26:39;;;;;;;0.60;0.10;;;16.60;1.00;;;;;;6208857;23;20462;-81
2022/09/19 11:29:27;;;;;;;0.60;0.10;;;16.50;1.00;;;;;;6208136;23;20424;-80
2022/09/19 11:32:32;;;;;;;0.60;0.10;;;16.40;1.00;;;;;;6208522;23;20412;-79
2022/09/19 11:35:28;;;;;;;0.60;0.10;;;16.50;1.00;;;;;;6208393;23;20407;-79
2022/09/19 11:38:10;;;;;;;0.63;0.27;;;16.50;1.00;;;;;;6208866;23;20407;-78
2022/09/19 11:41:07;;;;;;;0.60;0.20;;;16.50;1.00;;;;;;6209141;23;20444;-79
2022/09/19 11:43:48;;;;;;;0.60;0.10;;;16.50;1.00;;;;;;6208867;23;20476;-79
2022/09/19 11:46:26;;;;;;;0.60;0.27;;;16.40;1.00;;;;;;6209139;23;20431;-78
2022/09/19 11:49:18;;;;;;;0.60;0.10;;;16.40;1.00;;;;;;6209403;23;20435;-79
2022/09/19 11:51:59;;;;;;;0.60;0.10;;;16.40;1.00;;;;;;6192429;23;20413;-78
2022/09/19 11:54:44;;;;;;;1.00;0.53;;;16.30;1.00;;;;;;6209128;23;20392;-80
2022/09/19 11:57:23;;;;;;;0.70;0.37;;;16.20;1.00;;;;;;6209487;23;20410;-79
2022/09/19 12:00:00;;;;;;;0.60;0.23;;;;;;;;;;6208059;23;20438;-81
2022/09/19 12:02:50;;;;;;;0.60;0.10;;;15.90;1.00;;;;;;6209261;23;20396;-79
2022/09/19 12:05:27;;;;;;;0.60;0.10;;;15.90;1.00;;;;;;6209109;23;20479;-78
2022/09/19 12:08:12;;;;;;;1.93;0.40;;;16.00;1.00;;;;;;6206935;23;20423;-80
2022/09/19 12:10:44;;;;;;;0.60;0.10;;;16.00;1.00;;;;;;6206020;23;20420;-80
2022/09/19 12:13:19;;;;;;;0.60;0.20;;;16.10;1.00;;;;;;6207373;23;20372;-78
2022/09/19 12:15:52;;;;;;;0.60;0.10;;;16.10;1.00;;;;;;6208933;23;20388;-78
2022/09/19 12:18:28;;;;;;;0.60;0.10;;;16.20;1.00;;;;;;6206779;23;20507;-79
2022/09/19 12:21:00;;;;;;;0.60;0.10;;;16.20;1.00;;;;;;6200653;23;20484;-80
2022/09/19 12:26:27;;;;;;;0.60;0.10;;;16.40;1.00;;;;;;6208595;23;20424;-79
2022/09/19 12:29:01;;;;;;;0.60;0.20;;;16.70;1.00;;;;;;6207796;23;20436;-79
2022/09/19 12:31:36;;;;;;;0.60;0.10;;;16.90;1.00;;;;;;6205326;23;20415;-80
2022/09/19 12:34:14;;;;;;;0.60;0.10;;;17.00;1.00;;;;;;6201140;23;20396;-80
2022/09/19 12:36:49;;;;;;;0.60;0.20;;;17.10;1.00;;;;;;6210858;23;20422;-80
2022/09/19 12:39:23;;;;;;;1.00;0.40;;;17.10;1.00;;;;;;6207880;23;20420;-80
2022/09/19 12:41:58;;;;;;;0.60;0.10;;;17.00;1.00;;;;;;6206034;23;20414;-80
2022/09/19 12:44:35;;;;;;;0.60;0.10;;;16.90;1.00;;;;;;6201560;23;20414;-79
2022/09/19 12:47:12;;;;;;;0.60;0.30;;;17.00;1.00;;;;;;6200079;23;20442;-79
2022/09/19 12:49:47;;;;;;;0.60;0.10;;;16.90;1.00;;;;;;6197925;23;20420;-80
2022/09/19 12:52:21;;;;;;;0.60;0.10;;;16.90;1.00;;;;;;6200337;23;20462;-78
2022/09/19 12:54:58;;;;;;;0.60;0.10;;;16.80;1.00;;;;;;6207148;23;20377;-79
2022/09/19 12:57:31;;;;;;;0.60;0.10;;;16.80;1.00;;;;;;6207640;23;20454;-80
2022/09/19 12:59:59;;;;;;;0.60;0.10;;;16.80;1.00;;;;;;6208513;23;20500;-80
2022/09/19 13:02:31;;;;;;;0.60;0.10;;;16.80;1.00;;;;;;6205319;23;20415;-80
2022/09/19 13:05:08;;;;;;;0.60;0.10;;;17.10;1.00;;;;;;6204201;23;20419;-79
2022/09/19 13:07:42;;;;;;;0.60;0.10;;;17.10;1.00;;;;;;6205526;23;20380;-81
2022/09/19 13:10:20;;;;;;;0.60;0.23;;;17.10;1.00;;;;;;6205209;23;20513;-81
2022/09/19 13:12:53;;;;;;;0.60;0.10;;;17.30;1.00;;;;;;6204217;23;20400;-79
2022/09/19 13:15:28;;;;;;;0.60;0.13;;;17.30;1.00;;;;;;6205698;23;20427;-80
2022/09/19 13:23:35;;;;;;;0.60;0.20;;;17.60;1.00;;;;;;6208338;23;20444;-79
2022/09/19 13:26:24;;;;;;;0.60;0.10;;;17.50;1.00;;;;;;6208597;23;20431;-79
2022/09/19 13:28:54;;;;;;;0.80;0.30;;;17.60;1.00;;;;;;6205981;23;20463;-80
2022/09/19 13:31:25;;;;;;;0.60;0.10;;;17.60;1.00;;;;;;6206598;23;20415;-79
2022/09/19 13:33:57;;;;;;;0.60;0.10;;;17.70;1.00;;;;;;6204078;23;20373;-80
2022/09/19 13:36:43;;;;;;;0.60;0.10;;;17.80;1.00;;;;;;6203259;23;20439;-80
2022/09/19 13:39:45;;;;;;;0.60;0.13;;;18.00;1.00;;;;;;6196662;23;20412;-81
2022/09/19 13:42:24;;;;;;;0.60;0.10;;;18.00;1.00;;;;;;6196180;23;20416;-81
2022/09/19 13:45:01;;;;;;;0.60;0.10;;;18.00;1.00;;;;;;6196273;23;20420;-82
2022/09/19 13:47:31;;;;;;;0.97;0.43;;;18.00;1.00;;;;;;6193603;23;20510;-81
2022/09/19 13:50:07;;;;;;;0.60;0.10;;;18.00;1.00;;;;;;6194621;23;20419;-80
2022/09/19 13:52:42;;;;;;;0.60;0.20;;;18.00;1.00;;;;;;6196614;23;20414;-80
2022/09/19 13:55:20;;;;;;;0.60;0.10;;;18.00;1.00;;;;;;6196023;23;20431;-80